sensor_id;sensor_type;location;lat;lon;timestamp;P1;durP1;ratioP1;P2;durP2;ratioP2
37945;SDS011;23769;52.478;13.448;2023-07-29T00:00:47;9.93;;;8.40;;
37945;SDS011;23769;52.478;13.448;2023-07-29T00:03:14;9.88;;;8.88;;
37945;SDS011;23769;52.478;13.448;2023-07-29T00:05:41;9.65;;;8.57;;
37945;SDS011;23769;52.478;13.448;2023-07-29T00:08:09;9.35;;;8.43;;
37945;SDS011;23769;52.478;13.448;2023-07-29T00:10:38;12.95;;;10.15;;
37945;SDS011;23769;52.478;13.448;2023-07-29T00:13:07;10.25;;;9.15;;
37945;SDS011;23769;52.478;13.448;2023-07-29T00:15:36;9.07;;;8.10;;
37945;SDS011;23769;52.478;13.448;2023-07-29T00:18:04;11.20;;;9.68;;
37945;SDS011;23769;52.478;13.448;2023-07-29T00:20:31;10.55;;;9.10;;
37945;SDS011;23769;52.478;13.448;2023-07-29T00:22:59;11.63;;;9.52;;
37945;SDS011;23769;52.478;13.448;2023-07-29T00:25:27;9.90;;;8.90;;
37945;SDS011;23769;52.478;13.448;2023-07-29T00:27:55;11.10;;;9.63;;
37945;SDS011;23769;52.478;13.448;2023-07-29T00:30:23;11.90;;;10.23;;
37945;SDS011;23769;52.478;13.448;2023-07-29T00:32:50;11.18;;;9.32;;
37945;SDS011;23769;52.478;13.448;2023-07-29T00:35:27;11.23;;;9.77;;
37945;SDS011;23769;52.478;13.448;2023-07-29T00:37:55;15.63;;;12.80;;
37945;SDS011;23769;52.478;13.448;2023-07-29T00:40:22;15.05;;;11.73;;
37945;SDS011;23769;52.478;13.448;2023-07-29T00:42:50;15.82;;;14.15;;
37945;SDS011;23769;52.478;13.448;2023-07-29T00:45:20;15.45;;;10.63;;
37945;SDS011;23769;52.478;13.448;2023-07-29T00:47:47;10.65;;;9.40;;
37945;SDS011;23769;52.478;13.448;2023-07-29T00:50:14;10.68;;;9.07;;
37945;SDS011;23769;52.478;13.448;2023-07-29T00:52:44;9.77;;;8.77;;
37945;SDS011;23769;52.478;13.448;2023-07-29T00:55:11;11.40;;;9.50;;
37945;SDS011;23769;52.478;13.448;2023-07-29T00:57:38;14.77;;;11.25;;
37945;SDS011;23769;52.478;13.448;2023-07-29T01:00:07;14.07;;;9.65;;
37945;SDS011;23769;52.478;13.448;2023-07-29T01:02:35;12.35;;;9.95;;
37945;SDS011;23769;52.478;13.448;2023-07-29T01:05:02;11.23;;;8.45;;
37945;SDS011;23769;52.478;13.448;2023-07-29T01:07:32;11.98;;;8.95;;
37945;SDS011;23769;52.478;13.448;2023-07-29T01:10:02;10.40;;;8.85;;
37945;SDS011;23769;52.478;13.448;2023-07-29T01:12:35;10.43;;;9.30;;
37945;SDS011;23769;52.478;13.448;2023-07-29T01:17:32;9.98;;;8.73;;
37945;SDS011;23769;52.478;13.448;2023-07-29T01:20:01;10.27;;;9.05;;
37945;SDS011;23769;52.478;13.448;2023-07-29T01:22:31;12.25;;;10.27;;
37945;SDS011;23769;52.478;13.448;2023-07-29T01:25:00;11.57;;;10.15;;
37945;SDS011;23769;52.478;13.448;2023-07-29T01:27:27;10.63;;;9.30;;
37945;SDS011;23769;52.478;13.448;2023-07-29T01:29:55;11.73;;;9.32;;
37945;SDS011;23769;52.478;13.448;2023-07-29T01:32:29;10.95;;;8.35;;
37945;SDS011;23769;52.478;13.448;2023-07-29T01:35:00;11.43;;;9.40;;
37945;SDS011;23769;52.478;13.448;2023-07-29T01:37:30;10.43;;;9.32;;
37945;SDS011;23769;52.478;13.448;2023-07-29T01:40:00;12.75;;;10.48;;
37945;SDS011;23769;52.478;13.448;2023-07-29T01:42:28;10.60;;;9.45;;
37945;SDS011;23769;52.478;13.448;2023-07-29T01:44:57;12.75;;;9.75;;
37945;SDS011;23769;52.478;13.448;2023-07-29T01:47:24;13.30;;;11.68;;
37945;SDS011;23769;52.478;13.448;2023-07-29T01:49:51;11.48;;;9.73;;
37945;SDS011;23769;52.478;13.448;2023-07-29T01:52:18;12.50;;;11.20;;
37945;SDS011;23769;52.478;13.448;2023-07-29T01:54:46;19.98;;;14.43;;
37945;SDS011;23769;52.478;13.448;2023-07-29T01:57:14;17.50;;;12.35;;
37945;SDS011;23769;52.478;13.448;2023-07-29T01:59:43;12.77;;;11.27;;
37945;SDS011;23769;52.478;13.448;2023-07-29T02:02:11;12.00;;;9.93;;
37945;SDS011;23769;52.478;13.448;2023-07-29T02:04:38;12.13;;;10.30;;
37945;SDS011;23769;52.478;13.448;2023-07-29T02:07:05;12.25;;;10.32;;
37945;SDS011;23769;52.478;13.448;2023-07-29T02:09:32;13.25;;;9.55;;
37945;SDS011;23769;52.478;13.448;2023-07-29T02:12:00;10.48;;;9.38;;
37945;SDS011;23769;52.478;13.448;2023-07-29T02:14:33;10.50;;;9.40;;
37945;SDS011;23769;52.478;13.448;2023-07-29T02:17:01;11.07;;;9.48;;
37945;SDS011;23769;52.478;13.448;2023-07-29T02:19:28;13.48;;;10.40;;
37945;SDS011;23769;52.478;13.448;2023-07-29T02:21:57;11.50;;;9.00;;
37945;SDS011;23769;52.478;13.448;2023-07-29T02:24:25;13.65;;;10.45;;
37945;SDS011;23769;52.478;13.448;2023-07-29T02:26:55;14.80;;;10.27;;
37945;SDS011;23769;52.478;13.448;2023-07-29T02:29:22;10.85;;;9.57;;
37945;SDS011;23769;52.478;13.448;2023-07-29T02:31:51;11.82;;;9.50;;
37945;SDS011;23769;52.478;13.448;2023-07-29T02:34:18;10.70;;;9.60;;
37945;SDS011;23769;52.478;13.448;2023-07-29T02:36:46;12.80;;;11.40;;
37945;SDS011;23769;52.478;13.448;2023-07-29T02:39:13;12.88;;;10.82;;
37945;SDS011;23769;52.478;13.448;2023-07-29T02:41:40;12.27;;;10.60;;
37945;SDS011;23769;52.478;13.448;2023-07-29T02:44:07;11.23;;;9.85;;
37945;SDS011;23769;52.478;13.448;2023-07-29T02:46:35;11.70;;;9.68;;
37945;SDS011;23769;52.478;13.448;2023-07-29T02:49:03;10.10;;;9.10;;
37945;SDS011;23769;52.478;13.448;2023-07-29T02:51:31;11.63;;;10.15;;
37945;SDS011;23769;52.478;13.448;2023-07-29T02:53:58;19.90;;;9.75;;
37945;SDS011;23769;52.478;13.448;2023-07-29T02:56:28;12.27;;;10.38;;
37945;SDS011;23769;52.478;13.448;2023-07-29T02:58:55;11.23;;;10.02;;
37945;SDS011;23769;52.478;13.448;2023-07-29T03:01:23;13.95;;;11.27;;
37945;SDS011;23769;52.478;13.448;2023-07-29T03:03:51;13.75;;;10.43;;
37945;SDS011;23769;52.478;13.448;2023-07-29T03:06:22;10.98;;;9.77;;
37945;SDS011;23769;52.478;13.448;2023-07-29T03:08:50;13.45;;;10.80;;
37945;SDS011;23769;52.478;13.448;2023-07-29T03:11:17;11.48;;;10.32;;
37945;SDS011;23769;52.478;13.448;2023-07-29T03:13:45;11.30;;;10.10;;
37945;SDS011;23769;52.478;13.448;2023-07-29T03:16:15;12.35;;;10.85;;
37945;SDS011;23769;52.478;13.448;2023-07-29T03:18:43;11.93;;;10.50;;
37945;SDS011;23769;52.478;13.448;2023-07-29T03:21:11;11.20;;;8.93;;
37945;SDS011;23769;52.478;13.448;2023-07-29T03:23:39;12.30;;;9.70;;
37945;SDS011;23769;52.478;13.448;2023-07-29T03:26:10;15.18;;;10.02;;
37945;SDS011;23769;52.478;13.448;2023-07-29T03:28:39;11.68;;;9.23;;
37945;SDS011;23769;52.478;13.448;2023-07-29T03:31:06;11.32;;;10.13;;
37945;SDS011;23769;52.478;13.448;2023-07-29T03:33:33;11.73;;;9.20;;
37945;SDS011;23769;52.478;13.448;2023-07-29T03:36:00;12.02;;;9.65;;
37945;SDS011;23769;52.478;13.448;2023-07-29T03:38:28;12.80;;;10.02;;
37945;SDS011;23769;52.478;13.448;2023-07-29T03:40:57;11.20;;;9.77;;
37945;SDS011;23769;52.478;13.448;2023-07-29T03:43:24;13.65;;;10.85;;
37945;SDS011;23769;52.478;13.448;2023-07-29T03:45:52;12.40;;;9.50;;
37945;SDS011;23769;52.478;13.448;2023-07-29T03:48:19;11.43;;;9.90;;
37945;SDS011;23769;52.478;13.448;2023-07-29T03:50:46;12.30;;;9.93;;
37945;SDS011;23769;52.478;13.448;2023-07-29T03:53:13;11.40;;;9.20;;
37945;SDS011;23769;52.478;13.448;2023-07-29T03:55:42;15.30;;;11.25;;
37945;SDS011;23769;52.478;13.448;2023-07-29T03:58:11;11.05;;;9.95;;
37945;SDS011;23769;52.478;13.448;2023-07-29T04:00:39;12.48;;;9.77;;
37945;SDS011;23769;52.478;13.448;2023-07-29T04:03:06;15.20;;;9.45;;
37945;SDS011;23769;52.478;13.448;2023-07-29T04:05:33;11.80;;;9.38;;
37945;SDS011;23769;52.478;13.448;2023-07-29T04:08:00;9.43;;;7.88;;
37945;SDS011;23769;52.478;13.448;2023-07-29T04:10:28;11.48;;;10.38;;
37945;SDS011;23769;52.478;13.448;2023-07-29T04:12:56;10.93;;;8.65;;
37945;SDS011;23769;52.478;13.448;2023-07-29T04:15:25;10.98;;;8.48;;
37945;SDS011;23769;52.478;13.448;2023-07-29T04:17:52;9.50;;;8.10;;
37945;SDS011;23769;52.478;13.448;2023-07-29T04:20:20;12.23;;;8.07;;
37945;SDS011;23769;52.478;13.448;2023-07-29T04:22:47;11.63;;;8.90;;
37945;SDS011;23769;52.478;13.448;2023-07-29T04:25:14;8.65;;;7.32;;
37945;SDS011;23769;52.478;13.448;2023-07-29T04:27:41;7.80;;;7.07;;
37945;SDS011;23769;52.478;13.448;2023-07-29T04:30:08;6.50;;;5.57;;
37945;SDS011;23769;52.478;13.448;2023-07-29T04:32:37;7.78;;;6.35;;
37945;SDS011;23769;52.478;13.448;2023-07-29T04:35:05;6.88;;;6.18;;
37945;SDS011;23769;52.478;13.448;2023-07-29T04:37:32;6.70;;;6.07;;
37945;SDS011;23769;52.478;13.448;2023-07-29T04:39:59;7.10;;;6.10;;
37945;SDS011;23769;52.478;13.448;2023-07-29T04:42:29;7.30;;;5.35;;
37945;SDS011;23769;52.478;13.448;2023-07-29T04:44:56;6.68;;;5.63;;
37945;SDS011;23769;52.478;13.448;2023-07-29T04:47:23;16.77;;;13.02;;
37945;SDS011;23769;52.478;13.448;2023-07-29T04:49:52;8.77;;;7.88;;
37945;SDS011;23769;52.478;13.448;2023-07-29T04:52:19;5.70;;;5.10;;
37945;SDS011;23769;52.478;13.448;2023-07-29T04:54:46;8.73;;;5.95;;
37945;SDS011;23769;52.478;13.448;2023-07-29T04:57:14;6.07;;;5.50;;
37945;SDS011;23769;52.478;13.448;2023-07-29T04:59:41;10.52;;;8.60;;
37945;SDS011;23769;52.478;13.448;2023-07-29T05:02:08;4.85;;;3.75;;
37945;SDS011;23769;52.478;13.448;2023-07-29T05:04:36;3.72;;;3.30;;
37945;SDS011;23769;52.478;13.448;2023-07-29T05:07:05;7.00;;;3.40;;
37945;SDS011;23769;52.478;13.448;2023-07-29T05:09:32;3.25;;;2.83;;
37945;SDS011;23769;52.478;13.448;2023-07-29T05:12:00;4.25;;;3.58;;
37945;SDS011;23769;52.478;13.448;2023-07-29T05:14:27;3.60;;;3.30;;
37945;SDS011;23769;52.478;13.448;2023-07-29T05:16:54;3.17;;;2.88;;
37945;SDS011;23769;52.478;13.448;2023-07-29T05:19:21;3.88;;;3.08;;
37945;SDS011;23769;52.478;13.448;2023-07-29T05:21:49;3.33;;;3.03;;
37945;SDS011;23769;52.478;13.448;2023-07-29T05:24:17;4.40;;;3.08;;
37945;SDS011;23769;52.478;13.448;2023-07-29T05:26:44;3.03;;;2.72;;
37945;SDS011;23769;52.478;13.448;2023-07-29T05:29:12;2.65;;;2.45;;
37945;SDS011;23769;52.478;13.448;2023-07-29T05:31:39;3.95;;;2.80;;
37945;SDS011;23769;52.478;13.448;2023-07-29T05:34:06;4.13;;;3.10;;
37945;SDS011;23769;52.478;13.448;2023-07-29T05:36:34;3.03;;;2.67;;
37945;SDS011;23769;52.478;13.448;2023-07-29T05:39:01;4.32;;;3.92;;
37945;SDS011;23769;52.478;13.448;2023-07-29T05:41:30;3.03;;;2.83;;
37945;SDS011;23769;52.478;13.448;2023-07-29T05:43:57;3.40;;;3.03;;
37945;SDS011;23769;52.478;13.448;2023-07-29T05:46:24;3.85;;;3.33;;
37945;SDS011;23769;52.478;13.448;2023-07-29T05:48:51;3.50;;;2.83;;
37945;SDS011;23769;52.478;13.448;2023-07-29T05:51:19;2.67;;;2.15;;
37945;SDS011;23769;52.478;13.448;2023-07-29T05:53:46;4.97;;;2.47;;
37945;SDS011;23769;52.478;13.448;2023-07-29T05:56:13;3.30;;;2.55;;
37945;SDS011;23769;52.478;13.448;2023-07-29T05:58:42;3.10;;;2.67;;
37945;SDS011;23769;52.478;13.448;2023-07-29T06:01:10;4.07;;;2.80;;
37945;SDS011;23769;52.478;13.448;2023-07-29T06:03:37;13.27;;;12.07;;
37945;SDS011;23769;52.478;13.448;2023-07-29T06:06:04;3.15;;;2.60;;
37945;SDS011;23769;52.478;13.448;2023-07-29T06:08:31;1.92;;;1.70;;
37945;SDS011;23769;52.478;13.448;2023-07-29T06:10:59;1.83;;;1.55;;
37945;SDS011;23769;52.478;13.448;2023-07-29T06:13:26;2.28;;;1.67;;
37945;SDS011;23769;52.478;13.448;2023-07-29T06:15:55;3.35;;;1.90;;
37945;SDS011;23769;52.478;13.448;2023-07-29T06:18:22;2.03;;;1.83;;
37945;SDS011;23769;52.478;13.448;2023-07-29T06:20:49;2.05;;;1.92;;
37945;SDS011;23769;52.478;13.448;2023-07-29T06:23:17;2.38;;;2.10;;
37945;SDS011;23769;52.478;13.448;2023-07-29T06:25:44;2.95;;;1.67;;
37945;SDS011;23769;52.478;13.448;2023-07-29T06:28:11;1.73;;;1.55;;
37945;SDS011;23769;52.478;13.448;2023-07-29T06:30:38;3.92;;;2.20;;
37945;SDS011;23769;52.478;13.448;2023-07-29T06:33:07;3.05;;;1.83;;
37945;SDS011;23769;52.478;13.448;2023-07-29T06:35:34;3.65;;;1.70;;
37945;SDS011;23769;52.478;13.448;2023-07-29T06:38:02;4.10;;;1.95;;
37945;SDS011;23769;52.478;13.448;2023-07-29T06:40:29;1.92;;;1.60;;
37945;SDS011;23769;52.478;13.448;2023-07-29T06:42:56;3.80;;;3.40;;
37945;SDS011;23769;52.478;13.448;2023-07-29T06:45:23;3.10;;;1.88;;
37945;SDS011;23769;52.478;13.448;2023-07-29T06:47:50;2.83;;;2.33;;
37945;SDS011;23769;52.478;13.448;2023-07-29T06:50:19;3.15;;;2.13;;
37945;SDS011;23769;52.478;13.448;2023-07-29T06:52:46;2.55;;;1.95;;
37945;SDS011;23769;52.478;13.448;2023-07-29T06:55:14;6.82;;;3.03;;
37945;SDS011;23769;52.478;13.448;2023-07-29T06:57:41;2.38;;;1.60;;
37945;SDS011;23769;52.478;13.448;2023-07-29T07:00:08;2.97;;;1.60;;
37945;SDS011;23769;52.478;13.448;2023-07-29T07:02:36;2.88;;;2.30;;
37945;SDS011;23769;52.478;13.448;2023-07-29T07:05:03;2.50;;;2.30;;
37945;SDS011;23769;52.478;13.448;2023-07-29T07:07:32;5.43;;;3.40;;
37945;SDS011;23769;52.478;13.448;2023-07-29T07:09:59;2.30;;;2.10;;
37945;SDS011;23769;52.478;13.448;2023-07-29T07:12:26;3.85;;;2.67;;
37945;SDS011;23769;52.478;13.448;2023-07-29T07:14:53;3.25;;;2.72;;
37945;SDS011;23769;52.478;13.448;2023-07-29T07:17:21;3.17;;;2.85;;
37945;SDS011;23769;52.478;13.448;2023-07-29T07:19:48;3.60;;;1.98;;
37945;SDS011;23769;52.478;13.448;2023-07-29T07:22:15;2.33;;;2.13;;
37945;SDS011;23769;52.478;13.448;2023-07-29T07:24:44;4.80;;;2.17;;
37945;SDS011;23769;52.478;13.448;2023-07-29T07:27:11;3.50;;;2.10;;
37945;SDS011;23769;52.478;13.448;2023-07-29T07:29:39;2.65;;;2.03;;
37945;SDS011;23769;52.478;13.448;2023-07-29T07:32:06;2.47;;;2.28;;
37945;SDS011;23769;52.478;13.448;2023-07-29T07:34:33;3.05;;;2.03;;
37945;SDS011;23769;52.478;13.448;2023-07-29T07:37:00;3.90;;;2.42;;
37945;SDS011;23769;52.478;13.448;2023-07-29T07:39:29;3.88;;;2.20;;
37945;SDS011;23769;52.478;13.448;2023-07-29T07:41:57;3.78;;;2.58;;
37945;SDS011;23769;52.478;13.448;2023-07-29T07:44:24;3.15;;;2.42;;
37945;SDS011;23769;52.478;13.448;2023-07-29T07:46:52;5.47;;;4.63;;
37945;SDS011;23769;52.478;13.448;2023-07-29T07:49:19;3.08;;;2.00;;
37945;SDS011;23769;52.478;13.448;2023-07-29T07:51:46;2.30;;;2.10;;
37945;SDS011;23769;52.478;13.448;2023-07-29T07:54:14;4.20;;;1.77;;
37945;SDS011;23769;52.478;13.448;2023-07-29T07:56:42;2.10;;;1.70;;
37945;SDS011;23769;52.478;13.448;2023-07-29T07:59:10;2.85;;;1.90;;
37945;SDS011;23769;52.478;13.448;2023-07-29T08:01:38;2.40;;;1.75;;
37945;SDS011;23769;52.478;13.448;2023-07-29T08:04:05;3.28;;;2.97;;
37945;SDS011;23769;52.478;13.448;2023-07-29T08:06:33;4.68;;;3.78;;
37945;SDS011;23769;52.478;13.448;2023-07-29T08:09:00;4.40;;;2.45;;
37945;SDS011;23769;52.478;13.448;2023-07-29T08:11:28;3.10;;;2.53;;
37945;SDS011;23769;52.478;13.448;2023-07-29T08:13:55;3.20;;;2.38;;
37945;SDS011;23769;52.478;13.448;2023-07-29T08:16:23;2.75;;;2.40;;
37945;SDS011;23769;52.478;13.448;2023-07-29T08:18:51;3.88;;;2.92;;
37945;SDS011;23769;52.478;13.448;2023-07-29T08:21:18;3.40;;;2.70;;
37945;SDS011;23769;52.478;13.448;2023-07-29T08:23:45;2.40;;;2.20;;
37945;SDS011;23769;52.478;13.448;2023-07-29T08:26:12;2.50;;;2.20;;
37945;SDS011;23769;52.478;13.448;2023-07-29T08:28:40;3.60;;;2.33;;
37945;SDS011;23769;52.478;13.448;2023-07-29T08:31:07;3.22;;;2.60;;
37945;SDS011;23769;52.478;13.448;2023-07-29T08:33:35;3.38;;;2.70;;
37945;SDS011;23769;52.478;13.448;2023-07-29T08:36:03;2.55;;;2.35;;
37945;SDS011;23769;52.478;13.448;2023-07-29T08:38:30;6.78;;;5.80;;
37945;SDS011;23769;52.478;13.448;2023-07-29T08:40:58;4.65;;;3.08;;
37945;SDS011;23769;52.478;13.448;2023-07-29T08:43:28;2.88;;;2.45;;
37945;SDS011;23769;52.478;13.448;2023-07-29T08:45:56;3.17;;;2.40;;
37945;SDS011;23769;52.478;13.448;2023-07-29T08:48:28;3.33;;;1.85;;
37945;SDS011;23769;52.478;13.448;2023-07-29T08:50:57;2.47;;;1.75;;
37945;SDS011;23769;52.478;13.448;2023-07-29T08:53:25;4.18;;;2.60;;
37945;SDS011;23769;52.478;13.448;2023-07-29T08:55:53;2.50;;;2.30;;
37945;SDS011;23769;52.478;13.448;2023-07-29T08:58:21;4.10;;;2.92;;
37945;SDS011;23769;52.478;13.448;2023-07-29T09:00:48;4.13;;;2.78;;
37945;SDS011;23769;52.478;13.448;2023-07-29T09:03:16;4.82;;;3.85;;
37945;SDS011;23769;52.478;13.448;2023-07-29T09:05:43;4.80;;;2.67;;
37945;SDS011;23769;52.478;13.448;2023-07-29T09:08:12;2.47;;;2.22;;
37945;SDS011;23769;52.478;13.448;2023-07-29T09:10:39;2.88;;;2.33;;
37945;SDS011;23769;52.478;13.448;2023-07-29T09:13:06;3.90;;;2.25;;
37945;SDS011;23769;52.478;13.448;2023-07-29T09:15:34;2.63;;;2.40;;
37945;SDS011;23769;52.478;13.448;2023-07-29T09:18:08;4.47;;;3.17;;
37945;SDS011;23769;52.478;13.448;2023-07-29T09:20:36;7.15;;;5.57;;
37945;SDS011;23769;52.478;13.448;2023-07-29T09:23:06;7.22;;;5.10;;
37945;SDS011;23769;52.478;13.448;2023-07-29T09:25:35;4.78;;;2.95;;
37945;SDS011;23769;52.478;13.448;2023-07-29T09:28:07;6.57;;;4.57;;
37945;SDS011;23769;52.478;13.448;2023-07-29T09:30:34;4.10;;;2.60;;
37945;SDS011;23769;52.478;13.448;2023-07-29T09:33:02;2.85;;;2.50;;
37945;SDS011;23769;52.478;13.448;2023-07-29T09:35:29;6.32;;;3.47;;
37945;SDS011;23769;52.478;13.448;2023-07-29T09:37:57;3.97;;;2.58;;
37945;SDS011;23769;52.478;13.448;2023-07-29T09:40:24;4.43;;;2.75;;
37945;SDS011;23769;52.478;13.448;2023-07-29T09:42:54;3.83;;;2.53;;
37945;SDS011;23769;52.478;13.448;2023-07-29T09:45:22;2.28;;;2.03;;
37945;SDS011;23769;52.478;13.448;2023-07-29T09:47:50;2.30;;;2.10;;
37945;SDS011;23769;52.478;13.448;2023-07-29T09:50:17;2.97;;;2.13;;
37945;SDS011;23769;52.478;13.448;2023-07-29T09:52:44;1.90;;;1.80;;
37945;SDS011;23769;52.478;13.448;2023-07-29T09:55:13;5.20;;;2.00;;
37945;SDS011;23769;52.478;13.448;2023-07-29T09:57:44;2.38;;;2.10;;
37945;SDS011;23769;52.478;13.448;2023-07-29T10:00:13;224.55;;;41.35;;
37945;SDS011;23769;52.478;13.448;2023-07-29T10:02:41;101.03;;;18.85;;
37945;SDS011;23769;52.478;13.448;2023-07-29T10:05:09;6.65;;;3.20;;
37945;SDS011;23769;52.478;13.448;2023-07-29T10:07:37;3.10;;;2.50;;
37945;SDS011;23769;52.478;13.448;2023-07-29T10:10:05;3.78;;;2.15;;
37945;SDS011;23769;52.478;13.448;2023-07-29T10:12:33;2.90;;;2.50;;
37945;SDS011;23769;52.478;13.448;2023-07-29T10:15:02;5.50;;;2.65;;
37945;SDS011;23769;52.478;13.448;2023-07-29T10:17:31;3.20;;;2.78;;
37945;SDS011;23769;52.478;13.448;2023-07-29T10:20:00;2.58;;;2.30;;
37945;SDS011;23769;52.478;13.448;2023-07-29T10:22:28;5.57;;;4.00;;
37945;SDS011;23769;52.478;13.448;2023-07-29T10:25:02;8.55;;;7.45;;
37945;SDS011;23769;52.478;13.448;2023-07-29T10:27:31;2.30;;;2.10;;
37945;SDS011;23769;52.478;13.448;2023-07-29T10:30:00;2.70;;;1.92;;
37945;SDS011;23769;52.478;13.448;2023-07-29T10:32:33;1.63;;;1.45;;
37945;SDS011;23769;52.478;13.448;2023-07-29T10:35:00;3.80;;;1.83;;
37945;SDS011;23769;52.478;13.448;2023-07-29T10:37:28;1.70;;;1.60;;
37945;SDS011;23769;52.478;13.448;2023-07-29T10:39:55;4.88;;;3.05;;
37945;SDS011;23769;52.478;13.448;2023-07-29T10:42:22;2.05;;;1.80;;
37945;SDS011;23769;52.478;13.448;2023-07-29T10:44:50;4.35;;;1.92;;
37945;SDS011;23769;52.478;13.448;2023-07-29T10:47:19;2.42;;;1.60;;
37945;SDS011;23769;52.478;13.448;2023-07-29T10:49:48;2.00;;;1.88;;
37945;SDS011;23769;52.478;13.448;2023-07-29T10:52:27;2.10;;;1.80;;
37945;SDS011;23769;52.478;13.448;2023-07-29T10:54:54;2.35;;;1.80;;
37945;SDS011;23769;52.478;13.448;2023-07-29T10:57:30;2.45;;;1.83;;
37945;SDS011;23769;52.478;13.448;2023-07-29T10:59:57;3.22;;;2.15;;
37945;SDS011;23769;52.478;13.448;2023-07-29T11:02:28;9.90;;;4.20;;
37945;SDS011;23769;52.478;13.448;2023-07-29T11:04:57;3.75;;;2.78;;
37945;SDS011;23769;52.478;13.448;2023-07-29T11:07:25;2.40;;;1.60;;
37945;SDS011;23769;52.478;13.448;2023-07-29T11:09:54;2.00;;;1.80;;
37945;SDS011;23769;52.478;13.448;2023-07-29T11:12:38;2.67;;;1.70;;
37945;SDS011;23769;52.478;13.448;2023-07-29T11:15:14;3.35;;;1.58;;
37945;SDS011;23769;52.478;13.448;2023-07-29T11:17:42;2.58;;;2.03;;
37945;SDS011;23769;52.478;13.448;2023-07-29T11:20:12;3.22;;;2.17;;
37945;SDS011;23769;52.478;13.448;2023-07-29T11:25:10;12.45;;;4.10;;
37945;SDS011;23769;52.478;13.448;2023-07-29T11:27:38;5.72;;;1.65;;
37945;SDS011;23769;52.478;13.448;2023-07-29T11:30:08;7.20;;;2.53;;
37945;SDS011;23769;52.478;13.448;2023-07-29T11:32:36;4.68;;;1.88;;
37945;SDS011;23769;52.478;13.448;2023-07-29T11:35:04;5.72;;;3.15;;
37945;SDS011;23769;52.478;13.448;2023-07-29T11:37:33;3.83;;;1.70;;
37945;SDS011;23769;52.478;13.448;2023-07-29T11:40:01;3.30;;;1.90;;
37945;SDS011;23769;52.478;13.448;2023-07-29T11:42:31;3.38;;;2.20;;
37945;SDS011;23769;52.478;13.448;2023-07-29T11:45:02;13.00;;;9.55;;
37945;SDS011;23769;52.478;13.448;2023-07-29T11:47:34;24.85;;;16.02;;
37945;SDS011;23769;52.478;13.448;2023-07-29T11:50:02;4.03;;;2.95;;
37945;SDS011;23769;52.478;13.448;2023-07-29T11:52:30;3.83;;;2.00;;
37945;SDS011;23769;52.478;13.448;2023-07-29T11:54:59;5.28;;;2.28;;
37945;SDS011;23769;52.478;13.448;2023-07-29T11:57:27;2.97;;;1.52;;
37945;SDS011;23769;52.478;13.448;2023-07-29T11:59:54;1.60;;;1.33;;
37945;SDS011;23769;52.478;13.448;2023-07-29T12:02:22;7.53;;;5.00;;
37945;SDS011;23769;52.478;13.448;2023-07-29T12:04:50;25.83;;;15.95;;
37945;SDS011;23769;52.478;13.448;2023-07-29T12:07:17;16.88;;;11.55;;
37945;SDS011;23769;52.478;13.448;2023-07-29T12:09:48;6.90;;;3.97;;
37945;SDS011;23769;52.478;13.448;2023-07-29T12:12:25;20.02;;;14.23;;
37945;SDS011;23769;52.478;13.448;2023-07-29T12:14:53;7.57;;;4.57;;
37945;SDS011;23769;52.478;13.448;2023-07-29T12:17:21;3.45;;;2.13;;
37945;SDS011;23769;52.478;13.448;2023-07-29T12:19:54;3.75;;;2.35;;
37945;SDS011;23769;52.478;13.448;2023-07-29T12:22:24;4.60;;;2.90;;
37945;SDS011;23769;52.478;13.448;2023-07-29T12:24:51;3.72;;;2.83;;
37945;SDS011;23769;52.478;13.448;2023-07-29T12:27:21;5.35;;;3.38;;
37945;SDS011;23769;52.478;13.448;2023-07-29T12:29:49;4.22;;;3.08;;
37945;SDS011;23769;52.478;13.448;2023-07-29T12:32:18;4.88;;;3.78;;
37945;SDS011;23769;52.478;13.448;2023-07-29T12:34:45;7.30;;;6.13;;
37945;SDS011;23769;52.478;13.448;2023-07-29T12:37:14;4.53;;;3.00;;
37945;SDS011;23769;52.478;13.448;2023-07-29T12:39:41;5.60;;;3.60;;
37945;SDS011;23769;52.478;13.448;2023-07-29T12:42:09;5.22;;;2.72;;
37945;SDS011;23769;52.478;13.448;2023-07-29T12:44:38;4.13;;;2.65;;
37945;SDS011;23769;52.478;13.448;2023-07-29T12:47:06;3.33;;;2.78;;
37945;SDS011;23769;52.478;13.448;2023-07-29T12:49:36;3.75;;;2.63;;
37945;SDS011;23769;52.478;13.448;2023-07-29T12:52:04;6.00;;;2.85;;
37945;SDS011;23769;52.478;13.448;2023-07-29T12:54:31;4.45;;;2.70;;
37945;SDS011;23769;52.478;13.448;2023-07-29T12:56:59;4.00;;;2.30;;
37945;SDS011;23769;52.478;13.448;2023-07-29T12:59:26;3.42;;;2.42;;
37945;SDS011;23769;52.478;13.448;2023-07-29T13:01:55;2.65;;;2.13;;
37945;SDS011;23769;52.478;13.448;2023-07-29T13:04:22;4.90;;;3.72;;
37945;SDS011;23769;52.478;13.448;2023-07-29T13:06:50;3.03;;;2.15;;
37945;SDS011;23769;52.478;13.448;2023-07-29T13:09:17;5.10;;;3.00;;
37945;SDS011;23769;52.478;13.448;2023-07-29T13:11:44;3.47;;;3.17;;
37945;SDS011;23769;52.478;13.448;2023-07-29T13:14:12;13.57;;;11.57;;
37945;SDS011;23769;52.478;13.448;2023-07-29T13:16:40;3.92;;;3.13;;
37945;SDS011;23769;52.478;13.448;2023-07-29T13:19:09;4.10;;;2.85;;
37945;SDS011;23769;52.478;13.448;2023-07-29T13:21:36;3.42;;;2.42;;
37945;SDS011;23769;52.478;13.448;2023-07-29T13:24:04;4.95;;;2.45;;
37945;SDS011;23769;52.478;13.448;2023-07-29T13:26:31;4.65;;;2.95;;
37945;SDS011;23769;52.478;13.448;2023-07-29T13:28:59;2.85;;;2.22;;
37945;SDS011;23769;52.478;13.448;2023-07-29T13:31:29;2.92;;;2.22;;
37945;SDS011;23769;52.478;13.448;2023-07-29T13:33:57;3.35;;;2.40;;
37945;SDS011;23769;52.478;13.448;2023-07-29T13:39:20;2.97;;;2.30;;
37945;SDS011;23769;52.478;13.448;2023-07-29T13:41:47;2.60;;;2.00;;
37945;SDS011;23769;52.478;13.448;2023-07-29T13:44:17;2.85;;;2.30;;
37945;SDS011;23769;52.478;13.448;2023-07-29T13:46:46;3.27;;;1.80;;
37945;SDS011;23769;52.478;13.448;2023-07-29T13:49:14;3.00;;;2.00;;
37945;SDS011;23769;52.478;13.448;2023-07-29T13:51:55;2.45;;;2.00;;
37945;SDS011;23769;52.478;13.448;2023-07-29T13:54:24;2.15;;;1.95;;
37945;SDS011;23769;52.478;13.448;2023-07-29T13:56:53;2.03;;;1.88;;
37945;SDS011;23769;52.478;13.448;2023-07-29T13:59:22;4.00;;;2.42;;
37945;SDS011;23769;52.478;13.448;2023-07-29T14:01:49;3.30;;;1.40;;
37945;SDS011;23769;52.478;13.448;2023-07-29T14:04:17;1.30;;;1.20;;
37945;SDS011;23769;52.478;13.448;2023-07-29T14:06:45;15.13;;;10.20;;
37945;SDS011;23769;52.478;13.448;2023-07-29T14:09:13;7.47;;;5.28;;
37945;SDS011;23769;52.478;13.448;2023-07-29T14:11:41;4.70;;;2.60;;
37945;SDS011;23769;52.478;13.448;2023-07-29T14:14:08;5.20;;;3.13;;
37945;SDS011;23769;52.478;13.448;2023-07-29T14:16:36;5.82;;;2.58;;
37945;SDS011;23769;52.478;13.448;2023-07-29T14:19:04;2.38;;;1.90;;
37945;SDS011;23769;52.478;13.448;2023-07-29T14:21:31;2.10;;;1.85;;
37945;SDS011;23769;52.478;13.448;2023-07-29T14:23:58;7.00;;;3.78;;
37945;SDS011;23769;52.478;13.448;2023-07-29T14:26:26;2.60;;;2.35;;
37945;SDS011;23769;52.478;13.448;2023-07-29T14:28:55;1.58;;;1.48;;
37945;SDS011;23769;52.478;13.448;2023-07-29T14:31:22;2.80;;;2.15;;
37945;SDS011;23769;52.478;13.448;2023-07-29T14:33:49;2.47;;;2.28;;
37945;SDS011;23769;52.478;13.448;2023-07-29T14:36:17;2.08;;;1.40;;
37945;SDS011;23769;52.478;13.448;2023-07-29T14:38:44;3.63;;;2.40;;
37945;SDS011;23769;52.478;13.448;2023-07-29T14:41:12;5.43;;;3.67;;